Time;durP1;ratioP1;P1;durP2;ratioP2;P2;SDS_P1;SDS_P2;PMS_P1;PMS_P2;Temp;Humidity;BMP_temperature;BMP_pressure;BME280_temperature;BME280_humidity;BME280_pressure;Samples;Min_cycle;Max_cycle;Signal;HPM_P1;HPM_P2
2021/12/05 00:24:29;;;;;;;6.75;4.85;;;;;;;-2.91;70.36;98919.91;4921798;28;20061;-73
2021/12/05 00:27:04;;;;;;;8.73;5.53;;;;;;;-2.90;70.74;98926.81;4938587;28;20070;-72
2021/12/05 00:32:29;;;;;;;8.60;5.00;;;;;;;-2.96;71.04;98930.47;4863539;29;20082;-73
2021/12/05 00:35:32;;;;;;;11.25;5.90;;;;;;;-2.95;71.11;98924.38;4848218;29;20100;-76
2021/12/05 01:10:18;;;;;;;10.48;6.10;;;;;;;-2.96;73.15;98909.63;4873296;29;20144;-76
2021/12/05 01:15:16;;;;;;;9.98;5.40;;;;;;;-2.86;73.98;98910.19;4849498;29;20047;-72
2021/12/05 01:18:02;;;;;;;12.68;6.65;;;;;;;-2.78;73.00;98908.22;4862429;29;20074;-71
2021/12/05 01:20:33;;;;;;;10.85;6.57;;;;;;;-2.83;73.17;98909.25;4861818;28;20044;-76
2021/12/05 01:23:06;;;;;;;10.13;6.65;;;;;;;-2.85;73.17;98909.31;4848417;29;20048;-77
2021/12/05 01:25:44;;;;;;;11.35;6.30;;;;;;;-2.83;73.52;98909.25;4879595;29;20051;-76
2021/12/05 01:34:13;;;;;;;11.05;6.68;;;;;;;-2.80;74.23;98906.53;4918919;28;20130;-70
2021/12/05 01:47:53;;;;;;;12.77;7.35;;;;;;;-2.85;73.64;98906.69;4842025;29;20436;-67
2021/12/05 02:44:59;;;;;;;15.48;7.93;;;;;;;-2.84;74.32;98918.84;4860469;29;20063;-68
2021/12/05 02:47:27;;;;;;;12.02;7.28;;;;;;;-2.85;74.88;98908.44;4844721;29;20423;-68
2021/12/05 02:49:55;;;;;;;15.80;8.00;;;;;;;-2.75;74.66;98905.53;4829227;29;20498;-70
2021/12/05 02:52:30;;;;;;;16.25;9.30;;;;;;;-2.78;75.20;98909.97;4826300;29;20548;-68
2021/12/05 02:54:57;;;;;;;;;;;;;;;-2.68;74.89;98908.78;4827636;29;20049;-65
2021/12/05 02:57:51;;;;;;;16.45;8.75;;;;;;;-2.80;75.56;98909.16;4842624;29;19919;-65
2021/12/05 03:00:31;;;;;;;15.20;8.73;;;;;;;-2.80;76.42;98911.75;4826907;29;20048;-65
2021/12/05 03:02:58;;;;;;;13.40;8.20;;;;;;;-2.77;76.83;98909.06;4827726;29;20045;-64
2021/12/05 03:05:23;;;;;;;12.73;6.75;;;;;;;-2.64;75.55;98903.44;4880382;29;20126;-65
2021/12/05 03:07:50;;;;;;;12.73;8.40;;;;;;;-2.66;75.12;98907.84;4919431;29;20058;-66
2021/12/05 03:10:21;;;;;;;14.50;8.18;;;;;;;-2.71;76.39;98909.72;4902036;29;20083;-65
2021/12/05 03:12:47;;;;;;;14.90;8.00;;;;;;;-2.63;75.50;98906.91;4919410;29;20090;-64
2021/12/05 03:15:16;;;;;;;19.75;11.60;;;;;;;-2.71;76.70;98908.91;4886886;29;20047;-64
2021/12/05 03:17:42;;;;;;;13.05;8.20;;;;;;;-2.65;76.80;98909.56;4919743;29;20126;-65
2021/12/05 03:20:15;;;;;;;17.02;9.43;;;;;;;-2.66;76.11;98902.63;4902434;29;20434;-64
2021/12/05 03:22:40;;;;;;;14.38;9.05;;;;;;;-2.64;77.13;98902.59;4902556;29;20102;-65
2021/12/05 03:25:07;;;;;;;15.30;8.57;;;;;;;-2.60;76.95;98897.25;4918642;28;20047;-65
2021/12/05 03:27:34;;;;;;;18.00;8.48;;;;;;;-2.58;76.82;98905.84;4901679;29;20475;-64
2021/12/05 03:30:05;;;;;;;16.67;8.30;;;;;;;-2.52;77.24;98903.97;4919842;29;20043;-63
2021/12/05 03:32:32;;;;;;;12.50;7.30;;;;;;;-2.51;76.66;98906.53;4902029;29;20102;-65
2021/12/05 03:34:58;;;;;;;13.57;8.82;;;;;;;-2.52;76.76;98909.19;4886152;29;20055;-65
2021/12/05 03:37:22;;;;;;;13.02;8.07;;;;;;;-2.49;77.11;98906.50;4902086;29;20050;-64
2021/12/05 03:39:49;;;;;;;14.00;7.78;;;;;;;-2.47;77.08;98907.28;4919171;29;20051;-65
2021/12/05 03:42:15;;;;;;;12.20;8.95;;;;;;;-2.45;77.08;98915.91;4902205;29;20047;-64
2021/12/05 03:44:40;;;;;;;19.85;9.20;;;;;;;-2.45;76.64;98906.34;4902021;29;20062;-65
2021/12/05 03:47:07;;;;;;;23.05;9.02;;;;;;;-2.46;77.16;98917.69;4901831;29;20130;-64
2021/12/05 03:49:36;;;;;;;14.07;8.63;;;;;;;-2.42;76.90;98923.66;4885929;29;20186;-64
2021/12/05 03:52:06;;;;;;;13.73;8.30;;;;;;;-2.42;76.53;98926.28;4919016;29;20039;-64
2021/12/05 03:54:31;;;;;;;19.73;9.13;;;;;;;-2.50;77.53;98925.66;4902122;29;20149;-64
2021/12/05 03:56:59;;;;;;;16.90;8.75;;;;;;;-2.48;77.63;98926.47;4902069;29;20070;-65
2021/12/05 03:59:27;;;;;;;12.93;7.43;;;;;;;-2.42;77.26;98934.97;4886173;29;20047;-64
2021/12/05 04:01:52;;;;;;;13.82;8.43;;;;;;;-2.45;77.27;98929.81;4902412;29;20051;-63
2021/12/05 04:04:18;;;;;;;16.27;8.35;;;;;;;-2.41;77.39;98926.22;4901677;29;20043;-64
2021/12/05 04:06:45;;;;;;;15.85;9.07;;;;;;;-2.35;77.50;98933.00;4901516;29;20051;-64
2021/12/05 04:09:12;;;;;;;11.27;7.32;;;;;;;-2.26;77.04;98941.41;4886022;29;20690;-63
2021/12/05 04:11:44;;;;;;;17.73;9.30;;;;;;;-2.17;76.22;98935.06;4886139;29;20046;-64
2021/12/05 04:14:12;;;;;;;17.60;8.60;;;;;;;-2.22;77.05;98936.94;4919225;29;20046;-64
2021/12/05 04:16:37;;;;;;;13.57;8.32;;;;;;;-2.21;76.16;98936.03;4901884;29;20055;-64
2021/12/05 04:19:04;;;;;;;13.10;8.05;;;;;;;-2.21;76.36;98936.91;4902176;29;20086;-65
2021/12/05 04:21:30;;;;;;;12.27;7.50;;;;;;;-2.18;76.29;98935.97;4919854;29;20565;-65
2021/12/05 04:23:57;;;;;;;14.93;9.30;;;;;;;-2.20;76.22;98936.00;4908793;29;20047;-66
2021/12/05 04:26:23;;;;;;;14.73;9.40;;;;;;;-2.23;76.31;98933.47;4912578;29;20141;-68
2021/12/05 04:28:48;;;;;;;13.95;8.75;;;;;;;-2.27;76.22;98933.66;4891002;29;20059;-64
2021/12/05 04:31:14;;;;;;;14.57;8.35;;;;;;;-2.30;76.59;98925.91;4893288;29;20139;-64
2021/12/05 04:33:39;;;;;;;14.30;8.60;;;;;;;-2.29;76.54;98938.91;4906536;29;20047;-64
2021/12/05 04:36:06;;;;;;;20.27;9.13;;;;;;;-2.29;77.18;98945.88;4905710;29;20073;-66
2021/12/05 11:58:28;;;;;;;12.88;9.48;;;;;;;-0.76;75.31;99149.97;5901825;23;20033;-68
2021/12/05 12:01:00;;;;;;;16.63;9.10;;;;;;;-0.73;75.41;99155.13;4919682;28;20410;-71
2021/12/05 12:03:34;;;;;;;13.40;8.30;;;;;;;-0.72;75.78;99158.59;4938038;28;20043;-69
2021/12/05 12:05:59;;;;;;;14.20;9.23;;;;;;;-0.74;75.50;99155.16;4920333;28;20055;-69
2021/12/05 12:08:24;;;;;;;15.50;9.10;;;;;;;-0.80;75.31;99160.63;4937884;28;20051;-68
2021/12/05 12:11:00;;;;;;;15.70;9.15;;;;;;;-0.74;75.70;99152.56;4937750;28;20043;-68
2021/12/05 12:13:29;;;;;;;13.95;8.32;;;;;;;-0.77;75.59;99152.66;4920423;28;20042;-68
2021/12/05 12:16:00;;;;;;;13.52;8.45;;;;;;;-0.81;76.13;99157.16;4920245;28;20449;-68
2021/12/05 12:18:32;;;;;;;15.82;10.85;;;;;;;-0.81;75.99;99161.53;4920144;28;20411;-67
2021/12/05 12:21:00;;;;;;;16.23;10.25;;;;;;;-0.77;76.04;99160.50;4888193;28;20101;-67
2021/12/05 12:23:25;;;;;;;15.90;9.20;;;;;;;-0.76;76.11;99162.22;4919967;28;20046;-67
2021/12/05 12:25:55;;;;;;;16.77;9.55;;;;;;;-0.65;76.10;99167.09;4937274;28;20453;-67
2021/12/05 12:28:20;;;;;;;18.77;9.82;;;;;;;-0.75;76.12;99167.41;4937213;28;20519;-68
2021/12/05 12:30:55;;;;;;;18.45;9.10;;;;;;;-0.87;76.27;99167.81;4919637;28;20081;-67
2021/12/05 12:33:26;;;;;;;;;;;;;;;-0.74;75.97;99163.88;4938308;28;20047;-68
2021/12/05 12:35:51;;;;;;;16.90;8.82;;;;;;;-0.88;75.72;99160.84;4903724;28;19993;-68
2021/12/05 12:38:23;;;;;;;16.25;9.70;;;;;;;-0.95;76.14;99171.59;4937157;28;20456;-67
2021/12/05 12:40:52;;;;;;;15.75;9.02;;;;;;;-0.99;76.29;99165.59;4936902;28;20047;-68
2021/12/05 12:43:39;;;;;;;15.10;9.75;;;;;;;-1.08;77.17;99172.88;4887548;28;20049;-66
2021/12/05 12:46:36;;;;;;;15.35;8.90;;;;;;;-1.07;76.82;99166.75;4919657;28;20417;-66
2021/12/05 12:49:16;;;;;;;20.00;9.35;;;;;;;-1.10;77.72;99170.31;4927994;28;20050;-67
2021/12/05 12:51:41;;;;;;;16.75;9.52;;;;;;;-1.11;77.56;99169.44;4936832;28;20043;-67
2021/12/05 12:54:18;;;;;;;11.55;8.25;;;;;;;-0.96;77.30;99164.63;4919131;28;20045;-67
2021/12/05 12:57:16;;;;;;;14.73;8.40;;;;;;;-0.92;77.06;99174.97;4919315;28;20054;-67
2021/12/05 13:00:01;;;;;;;18.10;10.52;;;;;;;-1.08;77.30;99178.97;4900237;29;20066;-67
2021/12/05 13:02:56;;;;;;;16.25;9.85;;;;;;;-1.15;78.22;99177.47;4917789;28;20081;-68
2021/12/05 13:11:12;;;;;;;12.13;8.07;;;;;;;-1.15;78.11;99183.56;4917789;28;20043;-68
2021/12/05 13:13:40;;;;;;;19.40;8.38;;;;;;;-1.10;78.28;99189.47;4918064;28;20040;-67
2021/12/05 13:16:14;;;;;;;13.52;8.15;;;;;;;-1.05;78.41;99196.34;4920495;28;20588;-67
2021/12/05 13:18:41;;;;;;;13.23;8.65;;;;;;;-1.01;78.62;99196.16;4918082;28;20047;-67
2021/12/05 13:21:09;;;;;;;15.00;8.43;;;;;;;-0.88;78.06;99194.00;4917015;29;20074;-66
2021/12/05 13:23:40;;;;;;;16.90;9.32;;;;;;;-0.95;77.93;99190.75;4918473;28;20039;-68
2021/12/05 13:26:30;;;;;;;13.98;8.30;;;;;;;-0.80;77.85;99192.03;4917285;28;20425;-67
2021/12/05 13:29:13;;;;;;;14.88;8.18;;;;;;;-0.83;77.29;99192.97;4917400;28;20055;-68
2021/12/05 13:31:45;;;;;;;15.65;8.75;;;;;;;-0.95;77.19;99195.13;4917503;28;20458;-68
2021/12/05 13:34:30;;;;;;;15.13;7.97;;;;;;;-0.98;77.75;99195.22;4917300;28;20046;-66
2021/12/05 13:37:13;;;;;;;;;;;;;;;-0.91;77.88;99202.00;4917185;29;20133;-67
2021/12/05 13:40:06;;;;;;;15.55;6.97;;;;;;;-0.83;77.53;99206.06;4916301;29;19918;-67
2021/12/05 13:42:42;;;;;;;13.65;8.75;;;;;;;-0.92;77.29;99200.28;4917626;28;20054;-69
2021/12/05 13:45:13;;;;;;;15.07;8.77;;;;;;;-0.98;77.75;99210.91;4918752;28;20073;-68
2021/12/05 13:47:46;;;;;;;21.80;10.95;;;;;;;-0.89;77.50;99213.22;4916188;29;20047;-70
2021/12/05 13:50:29;;;;;;;15.50;9.20;;;;;;;-0.80;77.35;99207.72;4917358;29;20695;-68
2021/12/05 13:53:03;;;;;;;16.17;10.00;;;;;;;-0.96;77.49;99217.81;4918447;28;20058;-73
2021/12/05 13:55:53;;;;;;;16.40;10.27;;;;;;;-1.02;77.89;99211.94;4918944;28;20047;-71
2021/12/05 13:58:18;;;;;;;16.10;9.02;;;;;;;-1.08;77.91;99219.97;4918619;28;20051;-76
2021/12/05 14:00:47;;;;;;;17.83;10.63;;;;;;;-1.19;78.43;99221.16;4900519;29;20055;-76
2021/12/05 14:03:11;;;;;;;16.05;9.80;;;;;;;-1.13;78.65;99227.97;4917213;29;20055;-77
2021/12/05 14:05:36;;;;;;;22.38;11.73;;;;;;;-1.10;78.91;99222.63;4917647;28;20058;-72
2021/12/05 14:08:01;;;;;;;27.15;12.38;;;;;;;-1.08;78.82;99230.44;4916880;28;20085;-72
2021/12/05 14:10:26;;;;;;;17.92;10.18;;;;;;;-1.00;78.51;99228.41;4919597;28;20043;-73
2021/12/05 14:12:51;;;;;;;21.08;12.32;;;;;;;-1.04;78.10;99234.66;4920500;28;20421;-72
2021/12/05 14:15:17;;;;;;;17.00;10.73;;;;;;;-1.05;78.53;99235.56;4919218;29;20122;-72
2021/12/05 14:17:44;;;;;;;16.88;10.93;;;;;;;-1.02;78.78;99235.47;4920565;28;20138;-76
2021/12/05 14:20:19;;;;;;;24.00;11.48;;;;;;;-1.06;78.70;99234.72;4921785;28;20471;-74
2021/12/05 14:22:46;;;;;;;19.40;10.18;;;;;;;-1.00;78.63;99236.25;4894553;29;20098;-74
2021/12/05 14:25:32;;;;;;;20.23;11.35;;;;;;;-0.85;78.00;99241.03;4899963;29;20050;-73
2021/12/05 14:28:00;;;;;;;17.17;9.75;;;;;;;-1.01;77.98;99237.16;4901499;29;20048;-73
2021/12/05 14:30:29;;;;;;;21.45;11.13;;;;;;;-1.10;78.42;99233.09;4900962;29;20043;-76
2021/12/05 14:32:58;;;;;;;21.20;11.15;;;;;;;-1.04;78.57;99232.06;4884752;29;20062;-74
2021/12/05 14:35:28;;;;;;;15.85;8.93;;;;;;;-0.94;78.66;99238.72;4868767;29;20489;-72
2021/12/05 14:37:53;;;;;;;15.63;10.38;;;;;;;-0.95;78.31;99231.75;4900975;29;20467;-74
2021/12/05 14:40:30;;;;;;;17.98;9.43;;;;;;;-0.91;78.30;99239.47;4900095;29;20035;-69
2021/12/05 14:42:58;;;;;;;17.45;9.43;;;;;;;-0.91;78.11;99254.31;4901601;29;20098;-73
2021/12/05 14:45:26;;;;;;;15.15;8.55;;;;;;;-0.90;77.82;99245.53;4900829;29;20086;-74
2021/12/05 14:47:53;;;;;;;16.65;10.73;;;;;;;-0.87;78.02;99248.91;4903591;29;20494;-72
2021/12/05 14:50:30;;;;;;;16.63;9.98;;;;;;;-0.76;78.03;99248.56;4904098;29;20050;-72
2021/12/05 14:52:56;;;;;;;28.40;10.73;;;;;;;-0.86;77.68;99252.41;4889169;29;20048;-70
2021/12/05 14:55:24;;;;;;;19.05;10.57;;;;;;;-0.92;77.53;99250.00;4883870;29;20051;-73
2021/12/05 14:57:53;;;;;;;18.95;11.15;;;;;;;-0.97;77.59;99255.34;4899163;29;20566;-65
2021/12/05 15:00:25;;;;;;;21.30;11.27;;;;;;;-0.98;77.55;99258.00;4915210;29;20506;-72
2021/12/05 15:03:13;;;;;;;16.80;10.18;;;;;;;-0.89;77.58;99260.34;4919403;29;20051;-70
2021/12/05 15:05:38;;;;;;;19.52;10.90;;;;;;;-0.92;77.71;99260.44;4902301;29;20047;-70
2021/12/05 15:08:08;;;;;;;18.20;11.02;;;;;;;-0.94;77.04;99265.72;4902093;29;20047;-70
2021/12/05 15:10:33;;;;;;;15.93;9.57;;;;;;;-0.89;77.10;99270.78;4901978;29;20065;-71
2021/12/05 15:12:59;;;;;;;15.95;10.07;;;;;;;-0.92;77.53;99261.31;4901882;29;20059;-72
2021/12/05 15:15:26;;;;;;;21.73;10.57;;;;;;;-0.93;77.22;99267.44;4919576;29;20047;-69
2021/12/05 15:17:53;;;;;;;17.63;10.85;;;;;;;-0.97;76.93;99267.56;4902214;29;20043;-71
2021/12/05 15:20:21;;;;;;;13.40;8.00;;;;;;;-0.94;77.12;99267.50;4918925;28;20077;-69
2021/12/05 15:22:54;;;;;;;18.00;10.45;;;;;;;-1.06;77.02;99271.34;4901819;29;20055;-73
2021/12/05 15:25:21;;;;;;;21.17;10.18;;;;;;;-1.10;76.77;99267.09;4919089;29;20047;-75
2021/12/05 15:27:47;;;;;;;15.80;8.93;;;;;;;-0.99;76.82;99274.59;4901445;29;20134;-68
2021/12/05 15:30:44;;;;;;;16.08;9.35;;;;;;;-1.01;76.66;99271.16;4918769;29;20427;-66
2021/12/05 15:33:20;;;;;;;22.30;13.73;;;;;;;-1.05;76.40;99272.19;4899805;29;20063;-69
2021/12/05 15:35:47;;;;;;;18.42;11.68;;;;;;;-1.14;76.31;99281.19;4918601;29;20101;-69
2021/12/05 15:38:14;;;;;;;19.35;9.63;;;;;;;-1.06;76.80;99281.81;4918523;29;20043;-71
2021/12/05 15:40:42;;;;;;;16.17;10.00;;;;;;;-1.11;76.74;99281.06;4885496;29;20042;-68
2021/12/05 15:43:10;;;;;;;14.10;8.70;;;;;;;-1.18;76.90;99288.25;4918438;29;20054;-67
2021/12/05 15:45:38;;;;;;;17.60;10.27;;;;;;;-1.11;77.35;99284.53;4901218;29;20050;-68
2021/12/05 15:48:03;;;;;;;17.05;10.68;;;;;;;-1.12;77.17;99282.81;4901149;29;20405;-71
2021/12/05 15:50:39;;;;;;;15.65;9.70;;;;;;;-1.03;77.21;99278.25;4901331;29;20043;-71
2021/12/05 15:53:12;;;;;;;15.13;9.90;;;;;;;-1.03;77.34;99283.47;4885569;29;20074;-72
2021/12/05 15:55:41;;;;;;;14.27;8.85;;;;;;;-0.97;76.91;99293.72;4885544;29;20464;-71
2021/12/05 15:58:10;;;;;;;16.25;9.20;;;;;;;-0.99;76.72;99299.00;4918550;29;20168;-71
2021/12/05 16:00:47;;;;;;;21.95;11.50;;;;;;;-1.04;76.38;99294.84;4892160;29;20043;-71
2021/12/05 16:03:25;;;;;;;14.00;8.77;;;;;;;-1.02;76.87;99298.28;4917097;29;20130;-73
2021/12/05 16:05:59;;;;;;;16.48;9.63;;;;;;;-1.00;76.58;99294.69;4916980;28;20047;-74
2021/12/05 16:08:28;;;;;;;17.30;10.55;;;;;;;-1.03;76.73;99297.41;4916997;29;20090;-73
2021/12/05 16:10:59;;;;;;;20.83;12.07;;;;;;;-1.07;76.40;99305.38;4917913;28;20413;-75
2021/12/05 16:13:25;;;;;;;17.02;10.02;;;;;;;-1.02;76.26;99295.66;4900901;29;20141;-65
2021/12/05 16:15:55;;;;;;;20.00;12.38;;;;;;;-1.14;76.39;99305.59;4916546;29;20597;-67
2021/12/05 16:18:29;;;;;;;19.30;12.07;;;;;;;-1.12;76.25;99303.75;4916707;29;20047;-66
2021/12/05 16:21:01;;;;;;;17.95;9.13;;;;;;;-1.00;76.55;99296.44;4918168;28;20057;-67
2021/12/05 16:23:29;;;;;;;20.55;12.52;;;;;;;-1.22;76.44;99306.69;4917681;28;20429;-66
2021/12/05 16:26:11;;;;;;;16.10;10.70;;;;;;;-1.29;76.95;99300.78;4917863;28;20047;-67
2021/12/05 16:28:36;;;;;;;19.13;10.57;;;;;;;-1.28;76.71;99302.50;4916773;29;20489;-68
2021/12/05 16:31:33;;;;;;;20.30;12.90;;;;;;;-1.27;76.48;99312.06;4918044;28;20051;-67
2021/12/05 16:34:03;;;;;;;20.58;12.73;;;;;;;-1.28;76.95;99307.72;4915818;29;20452;-66
2021/12/05 16:36:38;;;;;;;18.80;11.10;;;;;;;-1.25;77.53;99306.78;4917834;28;20047;-72
2021/12/05 16:39:11;;;;;;;20.45;11.93;;;;;;;-1.24;77.06;99317.19;4916851;29;20038;-73
2021/12/05 16:41:37;;;;;;;24.73;13.55;;;;;;;-1.25;77.04;99325.97;4916406;29;20580;-67
2021/12/05 16:44:13;;;;;;;23.48;13.02;;;;;;;-1.15;76.97;99329.16;4916350;28;20043;-71
2021/12/05 16:46:45;;;;;;;22.42;13.13;;;;;;;-1.21;76.88;99329.31;4898991;29;20051;-73
2021/12/05 16:49:13;;;;;;;31.73;15.20;;;;;;;-1.27;76.96;99337.34;4881924;29;20071;-72
2021/12/05 16:51:47;;;;;;;20.77;11.93;;;;;;;-1.26;76.90;99336.47;4899149;29;20055;-71
2021/12/05 16:54:18;;;;;;;;;;;;;;;-1.19;76.90;99343.22;4899811;29;20074;-72
2021/12/05 16:57:10;;;;;;;22.13;12.18;;;;;;;-1.21;76.63;99348.50;4899692;29;20014;-74
2021/12/05 16:59:40;;;;;;;25.20;15.48;;;;;;;-1.28;76.91;99354.81;4890417;29;20522;-72
2021/12/05 17:02:20;;;;;;;23.02;14.45;;;;;;;-1.35;76.89;99348.00;4899136;29;20058;-73
2021/12/05 17:04:58;;;;;;;22.02;14.18;;;;;;;-1.32;77.28;99347.06;4899053;29;20099;-73
2021/12/05 17:07:36;;;;;;;18.90;12.15;;;;;;;-1.27;77.33;99356.53;4899202;29;20070;-74
2021/12/05 17:10:08;;;;;;;21.42;12.02;;;;;;;-1.32;76.97;99352.31;4897477;29;20031;-73
2021/12/05 17:12:34;;;;;;;24.73;13.20;;;;;;;-1.29;77.21;99355.69;4897878;29;20048;-74
2021/12/05 17:15:30;;;;;;;20.25;12.13;;;;;;;-1.25;77.32;99353.88;4898989;29;20533;-75
2021/12/05 17:18:04;;;;;;;27.95;17.45;;;;;;;-1.55;77.99;99350.31;4893934;29;20059;-73
2021/12/05 17:20:35;;;;;;;;;;;;;;;-1.40;77.73;99360.38;4899079;29;20130;-72
2021/12/05 17:23:07;;;;;;;24.63;12.60;;;;;;;-1.37;77.78;99360.31;4897606;29;19966;-73
2021/12/05 17:25:40;;;;;;;25.73;14.00;;;;;;;-1.39;77.37;99359.47;4899119;29;20047;-72
2021/12/05 17:28:10;;;;;;;17.40;10.95;;;;;;;-1.38;77.05;99369.03;4898695;29;20086;-73
2021/12/05 17:30:37;;;;;;;18.55;10.93;;;;;;;-1.40;76.99;99370.84;4881717;29;20130;-73
2021/12/05 17:33:03;;;;;;;16.75;11.05;;;;;;;-1.37;76.95;99364.66;4900501;29;20058;-75
2021/12/05 17:35:29;;;;;;;19.60;11.27;;;;;;;-1.37;76.63;99364.66;4906890;29;20048;-73
2021/12/05 17:37:55;;;;;;;18.27;10.82;;;;;;;-1.35;76.76;99368.06;4903600;29;20047;-73
2021/12/05 17:40:20;;;;;;;27.15;15.25;;;;;;;-1.42;76.58;99367.41;4866388;29;20050;-73
2021/12/05 17:42:45;;;;;;;21.05;11.50;;;;;;;-1.46;76.34;99366.63;4897978;29;20052;-72
2021/12/05 17:45:13;;;;;;;22.95;13.35;;;;;;;-1.47;76.57;99362.28;4901262;29;20062;-73
2021/12/05 17:47:38;;;;;;;22.33;12.20;;;;;;;-1.40;76.74;99370.84;4902640;29;20130;-73
2021/12/05 17:50:08;;;;;;;22.83;11.95;;;;;;;-1.38;76.48;99368.19;4885294;29;20056;-72
2021/12/05 17:52:34;;;;;;;22.23;12.52;;;;;;;-1.40;76.67;99365.59;4902387;29;20883;-73
2021/12/05 17:55:18;;;;;;;20.05;11.75;;;;;;;-1.36;76.69;99367.25;4902497;29;20059;-73
2021/12/05 17:57:49;;;;;;;20.52;11.38;;;;;;;-1.31;76.64;99372.31;4902162;29;20363;-73
2021/12/05 18:03:04;;;;;;;17.15;10.38;;;;;;;-1.23;75.94;99373.81;4900858;29;20058;-72
2021/12/05 18:05:35;;;;;;;18.05;10.70;;;;;;;-1.17;75.95;99371.06;4902095;29;20106;-72
2021/12/05 18:08:05;;;;;;;20.40;11.55;;;;;;;-1.14;75.96;99384.06;4900506;29;20103;-73
2021/12/05 18:10:32;;;;;;;22.67;11.15;;;;;;;-1.16;75.84;99380.63;4900587;29;20142;-73
2021/12/05 18:13:00;;;;;;;22.02;11.63;;;;;;;-1.30;75.73;99374.03;4900785;29;20168;-72
2021/12/05 18:15:29;;;;;;;19.73;11.15;;;;;;;-1.27;75.87;99382.69;4884568;29;20391;-73
2021/12/05 18:17:56;;;;;;;20.73;10.73;;;;;;;-1.20;76.03;99383.34;4901791;29;20107;-72
2021/12/05 18:20:25;;;;;;;20.90;11.35;;;;;;;-1.22;76.21;99386.00;4901583;29;20050;-74
2021/12/05 18:22:50;;;;;;;20.90;12.18;;;;;;;-1.19;75.97;99392.91;4900377;29;20185;-73
2021/12/05 18:25:16;;;;;;;20.17;11.13;;;;;;;-1.16;75.88;99393.69;4901572;29;20079;-74
2021/12/05 18:27:41;;;;;;;20.17;11.23;;;;;;;-1.19;76.21;99388.53;4900283;29;20043;-71
2021/12/05 18:30:11;;;;;;;20.85;11.02;;;;;;;-1.23;76.09;99399.97;4901187;29;20052;-71
2021/12/05 18:32:37;;;;;;;21.42;10.75;;;;;;;-1.22;76.14;99395.59;4902491;29;20478;-72
2021/12/05 18:35:05;;;;;;;20.00;10.82;;;;;;;-1.28;76.16;99401.03;4885062;29;20517;-71
2021/12/05 18:37:30;;;;;;;19.90;11.73;;;;;;;-1.30;76.59;99408.03;4901770;29;20048;-71
2021/12/05 18:39:55;;;;;;;17.77;10.73;;;;;;;-1.27;76.80;99407.97;4901764;29;20048;-72
2021/12/05 18:42:22;;;;;;;20.63;11.45;;;;;;;-1.22;76.91;99412.16;4882697;29;20048;-71
2021/12/05 18:44:55;;;;;;;16.73;9.98;;;;;;;-1.17;76.78;99412.91;4867637;29;20046;-71
2021/12/05 18:47:23;;;;;;;19.67;11.93;;;;;;;-1.20;76.31;99412.97;4899306;29;20035;-69
2021/12/05 18:49:48;;;;;;;18.27;10.63;;;;;;;-1.16;76.28;99411.13;4900389;29;20446;-73
2021/12/05 18:52:14;;;;;;;21.13;11.88;;;;;;;-1.18;76.20;99413.78;4900728;29;20391;-73
2021/12/05 18:54:42;;;;;;;24.00;11.77;;;;;;;-1.20;76.22;99406.88;4900693;29;20056;-72
2021/12/05 18:57:10;;;;;;;21.23;10.52;;;;;;;-1.29;76.51;99410.63;4899394;29;20059;-73
2021/12/05 18:59:38;;;;;;;24.75;12.93;;;;;;;-1.33;76.64;99403.75;4909538;29;20056;-71
2021/12/05 19:05:02;;;;;;;20.92;11.23;;;;;;;-1.27;76.56;99408.81;4823407;29;20053;-72
2021/12/05 19:07:40;;;;;;;21.27;10.55;;;;;;;-1.18;76.21;99412.94;4823605;29;20125;-72
2021/12/05 19:12:52;;;;;;;19.88;10.82;;;;;;;-1.34;76.26;99420.31;4827467;29;20048;-73
2021/12/05 19:15:18;;;;;;;24.42;12.43;;;;;;;-1.39;76.68;99413.53;4811399;29;20056;-73
2021/12/05 19:17:42;;;;;;;23.45;12.43;;;;;;;-1.44;76.54;99405.78;4842337;29;20036;-70
2021/12/05 19:20:13;;;;;;;22.88;12.05;;;;;;;-1.46;76.62;99407.59;4831804;29;20037;-67
2021/12/05 19:22:40;;;;;;;25.63;12.02;;;;;;;-1.46;76.97;99412.81;4849738;29;20060;-67
2021/12/05 19:25:13;;;;;;;24.10;12.65;;;;;;;-1.47;76.77;99418.97;4831566;29;20397;-72
2021/12/05 19:27:39;;;;;;;25.33;13.45;;;;;;;-1.57;77.27;99423.56;4844840;29;20558;-72
2021/12/05 19:30:09;;;;;;;22.73;12.80;;;;;;;-1.56;77.28;99424.41;4841603;29;20045;-71
2021/12/05 19:32:35;;;;;;;23.00;13.68;;;;;;;-1.64;77.67;99429.84;4825898;29;20053;-73
2021/12/05 19:35:00;;;;;;;26.50;12.98;;;;;;;-1.64;78.40;99431.59;4841350;29;20143;-69
2021/12/05 19:37:25;;;;;;;27.40;13.13;;;;;;;-1.52;78.01;99437.38;4841297;29;20036;-70
2021/12/05 19:39:50;;;;;;;26.73;14.65;;;;;;;-1.49;77.49;99436.44;4825984;29;20045;-70
2021/12/05 19:42:21;;;;;;;28.58;15.48;;;;;;;-1.60;77.70;99444.56;4891414;29;20066;-69
2021/12/05 19:44:45;;;;;;;24.38;14.15;;;;;;;-1.61;78.42;99440.22;4929710;28;20047;-72
2021/12/05 19:47:10;;;;;;;25.35;14.02;;;;;;;-1.61;78.43;99453.31;4937938;28;20049;-75
2021/12/05 19:49:36;;;;;;;24.65;14.45;;;;;;;-1.56;78.55;99450.56;4938232;28;20113;-70
2021/12/05 19:52:02;;;;;;;31.38;15.73;;;;;;;-1.62;78.24;99459.41;4939279;28;20039;-73
2021/12/05 19:54:29;;;;;;;28.00;15.15;;;;;;;-1.54;77.96;99452.22;4921756;28;20042;-70
2021/12/05 19:56:54;;;;;;;31.60;15.75;;;;;;;-1.57;78.01;99459.28;4920300;28;20060;-72
2021/12/05 19:59:20;;;;;;;32.03;16.88;;;;;;;-1.64;78.40;99450.75;4937578;28;20101;-72
2021/12/05 20:01:47;;;;;;;31.60;16.67;;;;;;;-1.69;78.67;99463.06;4937154;28;20138;-69
2021/12/05 20:04:13;;;;;;;26.33;14.02;;;;;;;-1.62;78.36;99463.78;4903703;28;20035;-70
2021/12/05 20:06:38;;;;;;;30.20;15.20;;;;;;;-1.63;78.71;99472.53;4919517;28;20047;-70
2021/12/05 20:09:07;;;;;;;28.35;13.57;;;;;;;-1.60;78.72;99468.09;4937031;28;20839;-71
2021/12/05 20:11:32;;;;;;;29.48;16.20;;;;;;;-1.65;78.38;99466.47;4937079;28;20046;-69
2021/12/05 20:13:58;;;;;;;25.40;13.32;;;;;;;-1.50;78.61;99466.09;4937156;28;20113;-68
2021/12/05 20:16:24;;;;;;;27.25;15.25;;;;;;;-1.58;78.08;99461.03;4937361;28;20050;-65
2021/12/05 20:18:50;;;;;;;26.95;15.18;;;;;;;-1.66;78.54;99468.22;4937284;28;20089;-67
2021/12/05 20:21:15;;;;;;;33.15;15.88;;;;;;;-1.62;78.56;99464.66;4919736;28;20058;-68
2021/12/05 20:23:43;;;;;;;26.45;15.13;;;;;;;-1.67;79.38;99470.88;4919614;28;20074;-67
2021/12/05 20:26:16;;;;;;;29.83;15.70;;;;;;;-1.65;79.42;99463.84;4936828;28;20043;-69
2021/12/05 20:28:41;;;;;;;31.58;15.95;;;;;;;-1.73;79.38;99478.88;4919534;28;20505;-66
2021/12/05 20:31:06;;;;;;;29.63;17.10;;;;;;;-1.71;79.74;99470.13;4919723;28;20050;-67
2021/12/05 20:33:34;;;;;;;25.63;13.60;;;;;;;-1.71;80.01;99474.47;4919400;28;20088;-67
2021/12/05 20:36:00;;;;;;;29.02;13.65;;;;;;;-1.67;79.54;99471.72;4937096;28;20412;-66
2021/12/05 20:38:24;;;;;;;26.77;12.88;;;;;;;-1.60;79.05;99467.22;4919669;28;20046;-67
2021/12/05 20:40:50;;;;;;;26.40;13.30;;;;;;;-1.65;79.29;99474.31;4936871;28;20050;-66
2021/12/05 20:43:17;;;;;;;29.77;14.27;;;;;;;-1.73;79.39;99473.66;4903276;28;20039;-66
2021/12/05 20:45:45;;;;;;;26.08;13.57;;;;;;;-1.74;80.02;99482.38;4920357;28;20512;-66
2021/12/05 20:48:11;;;;;;;27.63;13.57;;;;;;;-1.75;79.76;99478.06;4936566;28;20046;-74
2021/12/05 20:50:38;;;;;;;21.23;12.55;;;;;;;-1.65;79.21;99493.47;4913855;28;20034;-71
2021/12/05 20:53:05;;;;;;;25.17;14.13;;;;;;;-1.70;79.48;99487.50;4907805;28;20046;-70
2021/12/05 20:55:30;;;;;;;20.10;11.70;;;;;;;-1.67;79.02;99497.00;4926089;28;20042;-76
2021/12/05 20:57:56;;;;;;;21.58;9.13;;;;;;;-1.58;78.90;99497.63;4926763;28;20074;-70
2021/12/05 21:00:33;;;;;;;25.63;13.25;;;;;;;-1.50;78.64;99500.94;4911127;28;20145;-73
2021/12/05 21:03:00;;;;;;;24.33;12.63;;;;;;;-1.60;78.67;99503.81;4897427;28;20077;-73
2021/12/05 21:05:25;;;;;;;28.65;13.73;;;;;;;-1.61;78.42;99507.34;4925833;28;20118;-74
2021/12/05 21:07:56;;;;;;;23.50;12.43;;;;;;;-1.66;78.41;99506.56;4901485;28;20042;-73
2021/12/05 21:10:32;;;;;;;24.98;14.45;;;;;;;-1.68;78.63;99516.19;4928055;28;20057;-76
2021/12/05 21:12:59;;;;;;;22.63;13.00;;;;;;;-1.63;79.01;99520.44;4896712;28;20057;-72
2021/12/05 21:15:24;;;;;;;27.67;15.77;;;;;;;-1.62;79.17;99516.94;4924201;28;20137;-73
2021/12/05 21:17:50;;;;;;;22.95;13.15;;;;;;;-1.55;79.26;99508.03;4919096;28;20565;-71
2021/12/05 21:20:16;;;;;;;26.52;12.10;;;;;;;-1.52;79.17;99523.63;4917638;28;20046;-70
2021/12/05 21:22:41;;;;;;;22.80;12.38;;;;;;;-1.50;79.09;99519.25;4936118;28;20051;-66